Time;durP1;ratioP1;P1;durP2;ratioP2;P2;SDS_P1;SDS_P2;PMS_P1;PMS_P2;Temp;Humidity;BMP_temperature;BMP_pressure;BME280_temperature;BME280_humidity;BME280_pressure;Samples;Min_cycle;Max_cycle;Signal;HPM_P1;HPM_P2
2022/10/03 00:02:43;;;;;;;1.50;1.40;;;13.60;99.90;;;;;;6013283;29;20654;-62
2022/10/03 00:05:57;;;;;;;3.17;1.30;;;13.70;99.90;;;;;;6007699;29;20491;-62
2022/10/03 00:09:14;;;;;;;3.07;1.40;;;13.70;99.90;;;;;;6026658;29;20480;-63
2022/10/03 00:12:35;;;;;;;2.60;1.43;;;13.60;99.90;;;;;;6026390;29;20483;-63
2022/10/03 00:15:47;;;;;;;1.53;1.10;;;13.50;99.90;;;;;;6023797;29;20550;-63
2022/10/03 00:18:59;;;;;;;1.23;1.13;;;13.50;99.90;;;;;;6019315;29;20536;-63
2022/10/03 00:22:12;;;;;;;3.50;1.33;;;13.50;99.90;;;;;;6025481;29;20491;-63
2022/10/03 00:25:28;;;;;;;2.33;1.40;;;13.50;99.90;;;;;;6022398;29;20483;-62
2022/10/03 00:28:50;;;;;;;2.20;1.67;;;13.60;99.90;;;;;;6018475;29;20480;-63
2022/10/03 00:32:02;;;;;;;3.80;1.70;;;13.60;99.90;;;;;;6013024;29;20487;-62
2022/10/03 00:35:24;;;;;;;1.30;0.90;;;13.60;99.90;;;;;;6032056;29;20924;-63
2022/10/03 00:38:59;;;;;;;1.77;1.27;;;13.50;99.90;;;;;;6035730;29;20467;-63
2022/10/03 00:42:43;;;;;;;1.33;1.23;;;13.50;99.90;;;;;;6025194;29;20480;-64
2022/10/03 00:46:22;;;;;;;2.10;1.30;;;13.40;99.90;;;;;;6021539;29;20512;-63
2022/10/03 00:49:56;;;;;;;1.43;1.33;;;13.40;99.90;;;;;;5998624;29;20940;-63
2022/10/03 00:53:25;;;;;;;2.10;0.80;;;13.40;99.90;;;;;;6020291;29;20482;-63
2022/10/03 00:57:03;;;;;;;2.77;0.97;;;13.50;99.90;;;;;;6011527;29;20488;-63
2022/10/03 01:00:17;;;;;;;1.20;1.00;;;13.60;99.90;;;;;;6012105;29;20476;-63
2022/10/03 01:03:32;;;;;;;3.27;1.60;;;13.60;99.90;;;;;;6012530;29;20483;-63
2022/10/03 01:06:46;;;;;;;2.50;1.43;;;13.60;99.90;;;;;;6012080;29;20553;-62
2022/10/03 01:10:12;;;;;;;3.80;1.10;;;13.50;99.90;;;;;;6012368;29;20578;-64
2022/10/03 01:13:26;;;;;;;1.30;1.07;;;13.40;99.90;;;;;;6011839;29;20487;-63
2022/10/03 01:16:38;;;;;;;1.30;1.20;;;13.40;99.90;;;;;;6011389;29;20499;-63
2022/10/03 01:20:10;;;;;;;6.60;1.37;;;13.40;99.90;;;;;;6012276;29;20433;-63
2022/10/03 01:23:54;;;;;;;3.43;1.80;;;13.40;99.90;;;;;;6011842;29;20616;-63
2022/10/03 01:27:03;;;;;;;3.80;3.00;;;13.40;99.90;;;;;;6016321;29;20507;-63
2022/10/03 01:30:22;;;;;;;4.67;1.93;;;13.30;99.90;;;;;;6016325;29;20544;-63
2022/10/03 01:33:32;;;;;;;1.47;1.33;;;13.20;99.90;;;;;;6015727;29;20473;-63
2022/10/03 01:36:42;;;;;;;2.13;1.53;;;13.10;99.90;;;;;;6015739;29;20571;-63
2022/10/03 01:39:53;;;;;;;3.23;1.50;;;13.00;99.90;;;;;;6016135;29;20580;-63
2022/10/03 01:43:12;;;;;;;1.83;1.20;;;13.00;99.90;;;;;;6015829;29;20495;-62
2022/10/03 01:46:21;;;;;;;7.70;1.40;;;12.90;99.90;;;;;;6015547;29;20480;-62
2022/10/03 01:49:31;;;;;;;2.20;1.00;;;12.80;99.90;;;;;;6016096;29;20456;-62
2022/10/03 01:52:41;;;;;;;1.20;1.10;;;12.80;99.90;;;;;;6016803;29;20904;-63
2022/10/03 01:55:56;;;;;;;1.50;1.00;;;12.80;99.90;;;;;;6028881;29;20524;-63
2022/10/03 01:59:06;;;;;;;1.37;1.10;;;12.70;99.90;;;;;;6019022;29;20503;-63
2022/10/03 02:02:21;;;;;;;3.10;1.30;;;12.70;99.90;;;;;;6016098;29;20572;-62
2022/10/03 02:05:37;;;;;;;1.67;1.40;;;12.70;99.90;;;;;;6015392;29;20495;-62
2022/10/03 02:08:51;;;;;;;2.83;1.40;;;12.70;99.90;;;;;;6015388;29;20484;-63
2022/10/03 02:12:12;;;;;;;2.80;1.20;;;12.70;99.90;;;;;;6015213;29;20492;-63
2022/10/03 02:15:21;;;;;;;1.90;1.23;;;12.60;99.90;;;;;;6015135;29;20488;-63
2022/10/03 02:18:38;;;;;;;1.73;1.20;;;12.50;99.90;;;;;;6014985;29;20492;-62
2022/10/03 02:21:48;;;;;;;1.00;0.90;;;12.40;99.90;;;;;;6014684;29;20564;-63
2022/10/03 02:25:04;;;;;;;2.43;1.20;;;12.40;99.90;;;;;;6015008;29;20496;-63
2022/10/03 02:28:47;;;;;;;2.37;1.00;;;12.40;99.90;;;;;;6006635;29;20504;-63
2022/10/03 02:32:20;;;;;;;2.17;1.40;;;12.30;99.90;;;;;;6015209;29;20782;-63
2022/10/03 02:35:59;;;;;;;2.63;0.90;;;12.30;99.90;;;;;;6013008;29;20553;-64
2022/10/03 02:39:27;;;;;;;1.70;1.20;;;12.40;99.90;;;;;;6013122;29;20489;-64
2022/10/03 02:43:05;;;;;;;4.80;1.20;;;12.40;99.90;;;;;;6014934;29;20488;-65
2022/10/03 02:46:45;;;;;;;3.47;1.33;;;12.50;99.90;;;;;;6014583;29;20984;-63
2022/10/03 02:50:31;;;;;;;4.70;3.10;;;12.50;99.90;;;;;;6014536;29;20917;-64
2022/10/03 02:54:04;;;;;;;1.73;1.20;;;12.40;99.90;;;;;;6008044;29;20480;-64
2022/10/03 02:57:51;;;;;;;1.73;1.63;;;12.50;99.90;;;;;;6013792;29;20492;-64
2022/10/03 03:01:42;;;;;;;5.23;1.47;;;12.40;99.90;;;;;;6014465;29;20541;-64
2022/10/03 03:05:18;;;;;;;1.47;1.37;;;12.50;99.90;;;;;;5943947;29;20555;-64
2022/10/03 03:08:45;;;;;;;2.67;1.10;;;12.50;99.90;;;;;;6013861;29;20821;-65
2022/10/03 03:12:08;;;;;;;2.33;1.33;;;12.50;99.90;;;;;;6014054;29;20513;-65
2022/10/03 03:15:44;;;;;;;2.50;1.20;;;12.50;99.90;;;;;;6013776;29;20487;-65
2022/10/03 03:19:03;;;;;;;3.50;1.70;;;12.60;99.90;;;;;;6013601;29;20484;-64
2022/10/03 03:22:24;;;;;;;1.47;1.30;;;12.50;99.90;;;;;;6013533;29;20499;-65
2022/10/03 03:25:46;;;;;;;1.77;1.17;;;12.50;99.90;;;;;;6013611;29;20930;-66
2022/10/03 03:29:01;;;;;;;5.40;1.53;;;12.60;99.90;;;;;;6009186;29;20497;-65
2022/10/03 03:32:14;;;;;;;2.70;1.00;;;12.50;99.90;;;;;;6013489;29;20485;-65
2022/10/03 03:35:25;;;;;;;4.97;1.37;;;12.40;99.90;;;;;;6013676;29;20492;-65
2022/10/03 03:38:41;;;;;;;4.10;0.77;;;12.50;99.90;;;;;;6012958;29;20596;-65
2022/10/03 03:42:02;;;;;;;1.17;0.90;;;12.50;99.90;;;;;;6014067;29;20517;-64
2022/10/03 03:45:17;;;;;;;1.33;1.23;;;12.50;99.90;;;;;;6014045;29;20560;-65
2022/10/03 03:48:47;;;;;;;1.73;1.20;;;12.60;99.90;;;;;;6013053;29;20637;-64
2022/10/03 03:51:59;;;;;;;3.50;1.53;;;12.50;99.90;;;;;;6013383;29;20495;-64
2022/10/03 03:55:32;;;;;;;4.13;1.40;;;12.50;99.90;;;;;;6013360;29;20499;-65
2022/10/03 03:58:40;;;;;;;1.40;1.20;;;12.60;99.90;;;;;;6011708;29;20500;-64
2022/10/03 04:02:07;;;;;;;2.07;1.20;;;12.60;99.90;;;;;;6013209;29;20477;-64
2022/10/03 04:05:25;;;;;;;2.00;1.47;;;12.60;99.90;;;;;;6013369;29;20504;-64
2022/10/03 04:08:47;;;;;;;3.13;1.17;;;12.50;99.90;;;;;;6012356;29;20520;-65
2022/10/03 04:11:59;;;;;;;1.87;0.83;;;12.50;99.90;;;;;;6013212;29;20477;-64
2022/10/03 04:15:35;;;;;;;2.03;0.77;;;12.60;99.90;;;;;;6012596;29;20480;-66
2022/10/03 04:18:56;;;;;;;4.30;1.47;;;12.60;99.90;;;;;;6012920;29;20492;-65
2022/10/03 04:22:17;;;;;;;4.17;1.30;;;12.60;99.90;;;;;;6012603;29;20870;-66
2022/10/03 04:25:46;;;;;;;1.97;1.00;;;12.50;99.90;;;;;;6012065;29;20773;-65
2022/10/03 04:29:21;;;;;;;3.67;1.30;;;12.50;99.90;;;;;;6011866;29;20475;-65
2022/10/03 04:32:42;;;;;;;4.70;1.83;;;12.40;99.90;;;;;;6012422;29;20477;-65
2022/10/03 04:36:23;;;;;;;6.07;1.17;;;12.40;99.90;;;;;;6012811;29;20485;-65
2022/10/03 04:39:35;;;;;;;1.13;1.03;;;12.40;99.90;;;;;;6012245;29;20979;-65
2022/10/03 04:42:50;;;;;;;1.40;1.23;;;12.40;99.90;;;;;;6016637;29;20965;-65
2022/10/03 04:46:10;;;;;;;2.50;1.20;;;12.40;99.90;;;;;;5990121;29;20991;-65
2022/10/03 04:49:23;;;;;;;1.40;1.10;;;12.50;99.90;;;;;;5989505;29;21032;-65
2022/10/03 04:52:38;;;;;;;2.03;1.00;;;12.50;99.90;;;;;;5989594;29;20509;-65
2022/10/03 04:55:47;;;;;;;2.30;1.60;;;12.60;99.90;;;;;;5989746;29;20450;-65
2022/10/03 04:58:57;;;;;;;5.23;1.47;;;12.60;99.90;;;;;;5989210;29;20976;-65
2022/10/03 05:02:08;;;;;;;2.30;1.33;;;12.60;99.90;;;;;;5994113;29;20962;-65
2022/10/03 05:05:50;;;;;;;2.30;1.70;;;12.70;99.90;;;;;;5993991;29;20492;-65
2022/10/03 05:08:59;;;;;;;2.63;1.87;;;12.70;99.90;;;;;;6025048;29;20499;-65
2022/10/03 05:12:11;;;;;;;1.93;1.43;;;12.60;99.90;;;;;;6018907;29;20879;-65
2022/10/03 05:15:25;;;;;;;2.20;0.90;;;12.60;99.90;;;;;;6016783;29;20985;-65
2022/10/03 05:18:38;;;;;;;2.33;1.37;;;12.60;99.90;;;;;;6016394;29;20862;-65
2022/10/03 05:21:49;;;;;;;2.70;1.70;;;12.60;99.90;;;;;;6016523;29;20488;-65
2022/10/03 05:24:58;;;;;;;3.13;1.73;;;12.70;99.90;;;;;;6024244;29;20476;-65
2022/10/03 05:28:15;;;;;;;7.63;2.17;;;12.80;99.90;;;;;;6028758;29;20499;-65
2022/10/03 05:31:33;;;;;;;2.60;1.73;;;12.80;99.90;;;;;;6031914;29;20487;-65
2022/10/03 05:34:52;;;;;;;1.70;1.60;;;12.80;99.90;;;;;;6022334;29;20520;-65
2022/10/03 05:38:26;;;;;;;5.40;2.10;;;12.80;99.90;;;;;;6016401;29;20488;-65
2022/10/03 05:41:31;;;;;;;3.30;2.00;;;12.80;99.90;;;;;;6000997;29;20498;-65
2022/10/03 05:44:42;;;;;;;3.10;1.90;;;12.90;99.90;;;;;;6016034;29;20476;-65
2022/10/03 05:47:51;;;;;;;4.83;2.40;;;12.90;99.90;;;;;;6016441;29;20476;-65
2022/10/03 05:51:12;;;;;;;4.97;2.30;;;12.90;99.90;;;;;;6016862;29;20492;-65
2022/10/03 05:54:49;;;;;;;3.60;1.87;;;12.90;99.90;;;;;;6021291;29;20976;-65
2022/10/03 05:58:24;;;;;;;1.70;1.60;;;13.00;99.90;;;;;;6020725;29;20492;-65
2022/10/03 06:01:50;;;;;;;4.17;2.10;;;12.90;99.90;;;;;;6021229;29;20517;-64
2022/10/03 06:05:31;;;;;;;2.47;2.27;;;13.10;99.90;;;;;;6043177;29;20610;-65
2022/10/03 06:08:54;;;;;;;3.43;1.70;;;13.30;99.90;;;;;;6041048;29;20948;-65
2022/10/03 06:12:03;;;;;;;4.57;2.10;;;13.30;99.90;;;;;;6031004;29;20488;-65
2022/10/03 06:15:33;;;;;;;2.17;1.87;;;13.30;99.90;;;;;;6009553;29;20472;-60
2022/10/03 06:19:08;;;;;;;4.93;1.70;;;13.50;99.90;;;;;;5992778;29;20827;-61
2022/10/03 06:22:47;;;;;;;7.73;2.27;;;13.60;99.90;;;;;;6012545;29;20514;-61
2022/10/03 06:26:27;;;;;;;5.23;2.60;;;13.80;99.90;;;;;;6015125;29;21067;-60
2022/10/03 06:30:04;;;;;;;4.90;4.30;;;13.90;99.90;;;;;;6014715;29;20473;-61
2022/10/03 06:33:43;;;;;;;7.83;7.13;;;14.00;99.90;;;;;;6013322;29;20495;-61
2022/10/03 06:37:07;;;;;;;6.27;5.00;;;14.20;99.90;;;;;;6014077;29;20472;-63
2022/10/03 06:40:47;;;;;;;8.70;6.20;;;14.30;99.90;;;;;;5994262;29;20548;-62
2022/10/03 06:44:06;;;;;;;4.57;4.13;;;14.40;99.90;;;;;;6014312;29;20472;-61
2022/10/03 06:47:27;;;;;;;7.70;4.97;;;14.50;99.90;;;;;;6014343;29;20491;-62
2022/10/03 06:50:51;;;;;;;4.63;2.53;;;14.70;99.90;;;;;;6014925;29;20476;-61
2022/10/03 06:54:37;;;;;;;5.20;2.77;;;14.80;99.90;;;;;;6012160;29;20809;-61
2022/10/03 06:58:10;;;;;;;5.40;3.07;;;15.00;99.90;;;;;;6013924;29;20503;-59
2022/10/03 07:01:50;;;;;;;4.70;3.07;;;14.80;99.90;;;;;;6002846;29;20504;-60
2022/10/03 07:05:23;;;;;;;5.10;3.10;;;14.80;99.90;;;;;;6018277;29;20796;-60
2022/10/03 07:09:08;;;;;;;5.93;3.37;;;14.70;99.90;;;;;;6013699;29;21041;-62
2022/10/03 07:12:57;;;;;;;6.53;4.23;;;15.00;99.90;;;;;;6001374;29;20481;-61
2022/10/03 07:16:36;;;;;;;4.30;3.47;;;15.40;99.90;;;;;;6010683;29;20477;-61
2022/10/03 07:20:01;;;;;;;4.43;2.60;;;15.80;99.90;;;;;;5994882;29;20811;-61
2022/10/03 07:23:41;;;;;;;4.20;3.07;;;16.20;99.90;;;;;;6012910;29;20818;-61
2022/10/03 07:27:12;;;;;;;5.23;2.90;;;16.50;99.90;;;;;;6013840;29;20488;-62
2022/10/03 07:30:17;;;;;;;4.60;2.83;;;16.80;99.90;;;;;;6013952;29;20472;-62
2022/10/03 07:34:02;;;;;;;6.83;2.47;;;17.90;99.90;;;;;;6014008;29;20491;-63
2022/10/03 07:41:18;;;;;;;6.20;3.50;;;26.20;91.20;;;;;;6014268;29;20238;-63
2022/10/03 07:44:51;;;;;;;4.83;3.03;;;29.90;72.80;;;;;;6009780;29;20246;-63
2022/10/03 07:48:30;;;;;;;5.87;3.17;;;32.40;53.40;;;;;;6012856;29;20246;-61
2022/10/03 07:51:44;;;;;;;6.53;2.95;;;34.20;45.60;;;;;;6018834;29;20237;-61
2022/10/03 07:55:12;;;;;;;3.80;3.50;;;34.30;42.50;;;;;;6018235;29;20230;-61
2022/10/03 07:58:44;;;;;;;7.20;3.90;;;35.00;39.70;;;;;;6010018;29;20694;-61
2022/10/03 08:02:08;;;;;;;6.35;3.97;;;35.40;39.20;;;;;;6002970;29;20239;-62
2022/10/03 08:05:28;;;;;;;8.77;3.65;;;35.80;38.50;;;;;;6012885;29;20575;-62
2022/10/03 08:09:25;;;;;;;5.13;2.80;;;35.30;35.50;;;;;;6012687;29;20621;-61
2022/10/03 08:12:51;;;;;;;3.20;2.35;;;36.70;33.50;;;;;;6012812;29;20245;-62
2022/10/03 08:16:09;;;;;;;3.75;2.20;;;38.30;29.60;;;;;;5990035;29;20281;-62
2022/10/03 08:19:36;;;;;;;4.20;2.58;;;38.30;29.10;;;;;;5989963;29;20330;-62
2022/10/03 08:22:52;;;;;;;3.75;2.47;;;39.70;28.00;;;;;;6012722;29;20223;-61
2022/10/03 08:26:06;;;;;;;6.85;3.70;;;40.20;27.30;;;;;;6012562;29;20298;-62
2022/10/03 08:29:32;;;;;;;3.60;1.60;;;39.60;28.30;;;;;;6012450;29;20552;-61
2022/10/03 08:32:59;;;;;;;3.78;1.75;;;38.50;28.00;;;;;;6012461;29;20242;-61
2022/10/03 08:36:33;;;;;;;5.20;1.70;;;33.50;32.30;;;;;;6012273;29;20249;-61
2022/10/03 08:39:55;;;;;;;3.75;1.50;;;31.50;34.20;;;;;;6012181;29;20230;-62
2022/10/03 08:43:32;;;;;;;1.70;1.40;;;31.70;34.80;;;;;;6012323;29;20755;-62
2022/10/03 08:47:05;;;;;;;1.80;1.30;;;30.60;35.40;;;;;;6002786;29;20247;-62
2022/10/03 08:50:32;;;;;;;2.30;1.47;;;29.60;37.30;;;;;;5981679;29;20582;-62
2022/10/03 08:54:09;;;;;;;2.45;1.30;;;31.30;35.90;;;;;;5989794;29;20243;-62
2022/10/03 08:57:55;;;;;;;2.15;1.13;;;32.80;33.30;;;;;;5989154;29;20565;-61
2022/10/03 09:01:22;;;;;;;2.17;1.10;;;35.10;29.30;;;;;;5989338;29;20261;-62
2022/10/03 09:05:10;;;;;;;3.22;1.20;;;33.30;30.70;;;;;;5989045;29;20242;-62
2022/10/03 09:08:46;;;;;;;1.93;1.20;;;31.20;32.80;;;;;;5989508;29;20246;-60
2022/10/03 09:12:14;;;;;;;1.77;0.80;;;28.50;35.70;;;;;;5989302;29;20239;-62
2022/10/03 09:15:42;;;;;;;1.20;0.80;;;27.20;35.50;;;;;;6010166;29;20243;-62
2022/10/03 09:19:07;;;;;;;5.33;2.03;;;25.70;36.60;;;;;;6013123;29;20252;-61
2022/10/03 09:22:36;;;;;;;6.20;2.73;;;25.30;46.90;;;;;;6011663;29;20327;-61
2022/10/03 09:26:05;;;;;;;5.07;2.30;;;25.70;48.80;;;;;;6011657;29;20624;-61
2022/10/03 09:29:37;;;;;;;3.70;2.00;;;26.40;46.60;;;;;;6011932;29;20231;-62
2022/10/03 09:33:13;;;;;;;1.60;1.37;;;26.10;44.60;;;;;;6008501;29;20246;-62
2022/10/03 09:37:04;;;;;;;1.57;1.00;;;28.20;40.40;;;;;;6011961;29;20707;-63
2022/10/03 09:40:52;;;;;;;1.33;0.77;;;27.10;34.60;;;;;;6004941;29;20243;-62
2022/10/03 09:44:20;;;;;;;1.00;0.60;;;27.20;36.40;;;;;;6012138;29;20222;-62
2022/10/03 09:48:05;;;;;;;2.90;1.27;;;27.30;33.50;;;;;;6015026;29;20242;-61
2022/10/03 09:51:26;;;;;;;3.33;1.63;;;26.80;35.00;;;;;;6016454;29;20253;-64
2022/10/03 09:54:58;;;;;;;1.57;1.20;;;29.30;33.80;;;;;;6008730;29;20243;-63
2022/10/03 09:58:35;;;;;;;2.07;1.00;;;29.80;33.20;;;;;;6016186;29;20271;-62
2022/10/03 10:01:43;;;;;;;2.17;1.30;;;31.50;30.90;;;;;;6016608;29;20263;-63
2022/10/03 10:05:03;;;;;;;1.10;0.93;;;31.80;29.60;;;;;;6016411;29;20234;-63
2022/10/03 10:08:57;;;;;;;4.10;1.25;;;33.20;28.90;;;;;;6016558;29;20231;-64
2022/10/03 10:12:34;;;;;;;2.45;1.00;;;35.30;27.20;;;;;;5993717;29;20243;-64
2022/10/03 10:16:14;;;;;;;1.92;1.02;;;34.90;26.50;;;;;;6017547;29;20246;-64
2022/10/03 10:19:51;;;;;;;1.98;0.88;;;35.20;26.10;;;;;;6015830;29;20350;-63
2022/10/03 10:23:27;;;;;;;1.95;0.85;;;33.90;25.80;;;;;;6008863;29;20234;-65
2022/10/03 10:26:56;;;;;;;1.40;1.17;;;31.80;28.10;;;;;;6014908;29;20306;-61
2022/10/03 10:30:20;;;;;;;1.60;1.23;;;31.00;29.50;;;;;;6015574;29;20249;-62
2022/10/03 10:34:04;;;;;;;1.90;0.90;;;30.20;30.00;;;;;;6014937;29;20675;-63
2022/10/03 10:37:54;;;;;;;1.40;0.90;;;29.20;31.90;;;;;;6015839;29;20251;-62
2022/10/03 10:41:36;;;;;;;2.00;1.27;;;28.30;32.00;;;;;;6015520;29;20242;-63
2022/10/03 10:45:17;;;;;;;2.90;0.88;;;29.40;33.40;;;;;;6017127;29;20262;-63
2022/10/03 10:48:57;;;;;;;2.42;1.17;;;34.70;28.80;;;;;;6015217;29;20258;-64
2022/10/03 10:52:52;;;;;;;2.30;1.08;;;36.10;25.50;;;;;;6015412;29;20238;-62
2022/10/03 10:56:35;;;;;;;1.13;0.85;;;34.70;26.30;;;;;;5964002;29;20231;-65
2022/10/03 11:00:18;;;;;;;0.90;0.65;;;32.40;27.20;;;;;;6009978;29;20250;-62
2022/10/03 11:04:05;;;;;;;1.90;1.27;;;32.20;26.20;;;;;;6017087;29;20277;-64
2022/10/03 11:07:47;;;;;;;2.13;1.10;;;30.70;28.40;;;;;;6015080;29;20251;-63
2022/10/03 11:11:23;;;;;;;2.53;2.00;;;28.90;30.70;;;;;;5975577;29;20562;-64
2022/10/03 11:15:03;;;;;;;3.77;1.30;;;27.50;31.30;;;;;;6015944;29;20341;-63
2022/10/03 11:18:39;;;;;;;0.93;0.80;;;26.20;33.80;;;;;;6014711;29;20250;-61
2022/10/03 11:22:32;;;;;;;1.63;0.83;;;25.50;35.20;;;;;;6000040;29;20283;-63
2022/10/03 11:26:17;;;;;;;1.60;1.40;;;25.50;35.00;;;;;;6020998;29;20231;-61
2022/10/03 11:29:58;;;;;;;1.30;0.90;;;25.40;36.90;;;;;;6014701;29;20560;-62
2022/10/03 11:33:34;;;;;;;1.57;1.00;;;27.50;35.30;;;;;;6016004;29;20313;-62
2022/10/03 11:37:18;;;;;;;3.87;0.70;;;29.90;33.40;;;;;;6013915;29;20251;-61
2022/10/03 11:40:32;;;;;;;2.35;1.25;;;32.50;29.20;;;;;;6010956;29;20246;-62
2022/10/03 11:43:59;;;;;;;1.45;0.85;;;32.40;29.60;;;;;;6010308;29;20254;-62
2022/10/03 11:47:35;;;;;;;1.40;0.80;;;32.10;28.90;;;;;;6013773;29;20234;-61
2022/10/03 11:50:48;;;;;;;1.03;0.73;;;31.30;29.70;;;;;;6013489;29;20235;-61
2022/10/03 11:53:57;;;;;;;0.80;0.60;;;29.70;29.30;;;;;;6013400;29;20248;-61
2022/10/03 11:57:28;;;;;;;1.13;0.80;;;29.70;30.00;;;;;;6011926;29;20788;-61
2022/10/03 12:00:37;;;;;;;2.47;1.30;;;28.40;30.50;;;;;;6013377;29;20238;-62
2022/10/03 12:03:49;;;;;;;2.00;1.00;;;28.30;31.50;;;;;;6000205;29;20601;-62
2022/10/03 12:10:44;;;;;;;1.60;0.87;;;26.80;37.20;;;;;;6012960;29;20706;-62
2022/10/03 12:14:02;;;;;;;3.10;1.70;;;26.50;36.90;;;;;;6012878;29;20245;-63
2022/10/03 12:17:15;;;;;;;2.57;1.60;;;26.50;36.40;;;;;;6012574;29;20667;-62
2022/10/03 12:20:23;;;;;;;4.27;1.80;;;27.20;35.30;;;;;;6012698;29;20234;-62
2022/10/03 12:23:40;;;;;;;3.30;1.40;;;26.80;33.90;;;;;;6012782;29;20253;-62
2022/10/03 12:26:51;;;;;;;3.00;1.30;;;26.10;35.50;;;;;;6012963;29;20246;-62
2022/10/03 12:29:58;;;;;;;3.93;1.10;;;25.20;36.20;;;;;;6012608;29;20234;-62
2022/10/03 12:33:20;;;;;;;2.20;1.00;;;24.90;38.50;;;;;;6012615;29;20235;-64
2022/10/03 12:36:29;;;;;;;2.33;1.03;;;29.00;33.80;;;;;;6012399;29;20234;-63
2022/10/03 12:39:43;;;;;;;1.20;1.00;;;32.30;29.70;;;;;;6012419;29;20241;-64
2022/10/03 12:42:53;;;;;;;1.48;0.70;;;32.40;29.80;;;;;;6012395;29;20238;-64
2022/10/03 12:46:01;;;;;;;5.50;1.58;;;36.00;27.90;;;;;;6012480;29;20246;-63
2022/10/03 12:49:12;;;;;;;2.97;0.93;;;39.70;23.80;;;;;;6012609;29;20234;-63
2022/10/03 12:52:21;;;;;;;1.20;1.00;;;41.50;22.10;;;;;;6012100;29;20235;-63
2022/10/03 12:55:28;;;;;;;1.45;0.80;;;43.70;20.10;;;;;;6012529;29;20240;-63
2022/10/03 12:58:42;;;;;;;1.58;1.00;;;44.90;19.60;;;;;;6012101;29;20284;-62
2022/10/03 13:02:14;;;;;;;5.25;0.82;;;45.60;17.80;;;;;;6012578;29;20679;-61
2022/10/03 13:05:36;;;;;;;1.38;0.80;;;46.00;17.70;;;;;;6002964;29;20232;-62
2022/10/03 13:08:52;;;;;;;0.95;0.60;;;47.20;16.30;;;;;;6016957;29;20246;-63
2022/10/03 13:12:05;;;;;;;1.67;0.90;;;47.80;15.60;;;;;;6014260;29;20233;-64
2022/10/03 13:15:38;;;;;;;1.35;0.70;;;47.80;15.30;;;;;;6012159;29;20640;-63
2022/10/03 13:18:59;;;;;;;1.58;0.88;;;47.40;15.20;;;;;;6011347;29;20238;-63
2022/10/03 13:22:28;;;;;;;1.65;1.17;;;46.30;14.90;;;;;;6014821;29;20280;-63
2022/10/03 13:25:40;;;;;;;2.80;1.20;;;45.20;15.70;;;;;;6015951;29;20218;-62
2022/10/03 13:29:12;;;;;;;1.90;0.90;;;43.30;16.50;;;;;;6016344;29;20242;-61
2022/10/03 13:32:30;;;;;;;1.30;0.90;;;40.30;18.10;;;;;;6016609;29;20238;-63
2022/10/03 13:39:13;;;;;;;1.35;1.02;;;34.10;22.10;;;;;;6016406;29;20258;-61
2022/10/03 13:42:21;;;;;;;2.10;1.07;;;31.20;23.80;;;;;;6015935;29;20238;-62
2022/10/03 13:45:26;;;;;;;1.37;0.90;;;29.40;25.80;;;;;;6015776;29;20249;-62
2022/10/03 13:48:30;;;;;;;3.37;0.97;;;27.80;28.10;;;;;;6016163;29;20254;-62
2022/10/03 13:51:46;;;;;;;3.83;1.00;;;26.70;28.90;;;;;;6015892;29;20238;-62
2022/10/03 13:55:20;;;;;;;1.83;1.13;;;25.80;30.60;;;;;;6016154;29;20239;-61
2022/10/03 13:58:42;;;;;;;1.10;1.00;;;24.80;31.50;;;;;;6013946;29;20247;-60
2022/10/03 14:01:55;;;;;;;2.80;1.03;;;24.20;32.70;;;;;;6015728;29;20246;-61
2022/10/03 14:05:18;;;;;;;2.30;1.40;;;23.70;33.60;;;;;;6015954;29;20228;-61
2022/10/03 14:09:00;;;;;;;3.63;3.33;;;23.30;35.20;;;;;;6007481;29;20247;-63
2022/10/03 14:12:17;;;;;;;5.47;5.07;;;23.00;36.60;;;;;;6015112;29;20239;-62
2022/10/03 14:15:48;;;;;;;3.87;3.47;;;22.70;35.70;;;;;;6015363;29;20263;-62
2022/10/03 14:19:02;;;;;;;2.50;2.23;;;22.40;37.50;;;;;;6015358;29;20254;-61
2022/10/03 14:22:16;;;;;;;17.77;14.37;;;22.10;37.10;;;;;;6015004;29;20325;-62
2022/10/03 14:25:27;;;;;;;6.17;5.20;;;21.90;37.40;;;;;;6015058;29;20841;-62
2022/10/03 14:28:40;;;;;;;1.30;1.20;;;21.70;37.20;;;;;;6013240;29;20235;-62
2022/10/03 14:31:51;;;;;;;2.23;1.40;;;21.50;37.10;;;;;;6014635;29;20200;-63
2022/10/03 14:35:08;;;;;;;2.07;1.23;;;21.30;38.10;;;;;;6014947;29;20235;-64
2022/10/03 14:38:56;;;;;;;2.30;1.20;;;21.20;39.60;;;;;;6014396;29;20242;-64
2022/10/03 14:42:16;;;;;;;2.43;1.30;;;21.00;39.50;;;;;;6014438;29;20235;-66
2022/10/03 14:45:28;;;;;;;1.40;1.10;;;20.80;40.00;;;;;;6015258;29;20227;-64
2022/10/03 14:48:36;;;;;;;1.87;1.10;;;20.60;41.10;;;;;;5992640;29;20254;-64
2022/10/03 14:51:43;;;;;;;2.40;1.13;;;20.40;40.50;;;;;;5992351;29;20243;-64
2022/10/03 14:54:51;;;;;;;1.90;1.20;;;20.20;40.50;;;;;;5991867;29;20702;-64
2022/10/03 14:58:01;;;;;;;1.20;1.10;;;20.10;40.80;;;;;;5990290;29;20267;-64
2022/10/03 15:01:18;;;;;;;1.53;1.30;;;20.00;39.40;;;;;;6011433;29;20227;-64
2022/10/03 15:04:28;;;;;;;1.40;1.27;;;19.90;40.40;;;;;;6015284;29;20239;-64
2022/10/03 15:07:38;;;;;;;1.00;0.90;;;19.90;41.20;;;;;;6014383;29;20239;-65
2022/10/03 15:10:43;;;;;;;2.20;1.37;;;19.80;40.70;;;;;;6009725;29;20207;-65
2022/10/03 15:13:51;;;;;;;2.90;1.30;;;19.80;40.30;;;;;;6021552;29;20271;-65
2022/10/03 15:16:58;;;;;;;2.30;1.00;;;19.70;39.80;;;;;;6025328;29;20378;-65
2022/10/03 15:20:04;;;;;;;1.37;1.27;;;19.70;40.60;;;;;;6013476;29;20699;-66
2022/10/03 15:23:10;;;;;;;1.27;1.17;;;19.60;41.00;;;;;;6014482;29;20262;-64
2022/10/03 15:26:20;;;;;;;1.70;1.53;;;19.60;40.80;;;;;;6015340;29;20295;-63
2022/10/03 15:29:25;;;;;;;2.53;1.80;;;19.60;41.60;;;;;;6025137;29;20250;-65
2022/10/03 15:32:35;;;;;;;1.40;1.30;;;19.50;40.80;;;;;;6017575;29;20235;-65
2022/10/03 15:35:42;;;;;;;2.30;1.40;;;19.50;40.80;;;;;;6018127;29;20544;-65
2022/10/03 15:38:50;;;;;;;2.67;1.17;;;19.40;41.80;;;;;;6016453;29;20255;-65
2022/10/03 15:41:56;;;;;;;3.27;1.47;;;19.40;41.20;;;;;;6015640;29;20250;-65
2022/10/03 15:45:04;;;;;;;1.97;1.17;;;19.30;42.00;;;;;;6012999;29;20244;-65
2022/10/03 15:48:13;;;;;;;1.30;1.20;;;19.20;41.70;;;;;;6013508;29;20235;-64
2022/10/03 15:51:19;;;;;;;1.37;1.27;;;19.10;42.00;;;;;;6013280;29;20688;-58
2022/10/03 15:54:31;;;;;;;1.70;1.60;;;19.00;42.10;;;;;;6013260;29;20488;-59
2022/10/03 15:57:38;;;;;;;1.47;1.27;;;18.90;42.30;;;;;;6012754;29;20281;-59
2022/10/03 16:00:44;;;;;;;3.03;2.00;;;18.80;43.50;;;;;;6013083;29;20573;-58
2022/10/03 16:03:52;;;;;;;2.83;1.50;;;18.70;43.80;;;;;;6021274;29;20530;-59
2022/10/03 16:07:02;;;;;;;2.10;1.60;;;18.60;43.90;;;;;;6029467;29;20231;-59
2022/10/03 16:10:17;;;;;;;3.23;1.70;;;18.50;43.80;;;;;;6012956;29;20291;-59
2022/10/03 16:13:31;;;;;;;5.13;1.47;;;18.40;44.40;;;;;;6011683;29;20476;-59
2022/10/03 16:16:37;;;;;;;3.13;1.27;;;18.30;43.70;;;;;;6012240;29;20467;-59
2022/10/03 16:19:50;;;;;;;2.10;1.23;;;18.20;44.40;;;;;;6012372;29;20463;-59
2022/10/03 16:22:56;;;;;;;2.30;1.60;;;18.10;45.00;;;;;;6012573;29;20808;-59
2022/10/03 16:26:03;;;;;;;2.83;1.37;;;18.00;45.60;;;;;;6023454;29;20477;-58
2022/10/03 16:29:15;;;;;;;2.70;1.70;;;17.90;45.20;;;;;;6013816;29;20487;-58
2022/10/03 16:32:21;;;;;;;4.63;2.30;;;17.80;45.20;;;;;;6034186;29;20490;-59
2022/10/03 16:35:34;;;;;;;2.00;1.80;;;17.80;45.80;;;;;;6035952;29;20885;-59
2022/10/03 16:38:39;;;;;;;2.73;1.90;;;17.60;46.40;;;;;;6035739;29;20487;-60
2022/10/03 16:41:45;;;;;;;2.50;2.10;;;17.60;46.30;;;;;;6035257;29;20491;-60
2022/10/03 16:44:51;;;;;;;2.60;2.40;;;17.50;46.40;;;;;;6035498;29;20830;-58
2022/10/03 16:51:24;;;;;;;5.87;3.90;;;17.40;47.40;;;;;;6012726;29;20487;-59
2022/10/03 16:54:29;;;;;;;5.30;3.00;;;17.30;48.60;;;;;;6012741;29;20553;-59
2022/10/03 16:57:42;;;;;;;5.87;2.53;;;17.30;49.10;;;;;;6016563;29;20496;-58
2022/10/03 17:00:53;;;;;;;39.77;35.93;;;17.30;49.60;;;;;;6018156;29;20552;-59
2022/10/03 17:04:22;;;;;;;9.10;8.30;;;17.20;49.90;;;;;;6027594;29;20582;-59
2022/10/03 17:07:32;;;;;;;5.07;4.67;;;17.10;50.10;;;;;;6040005;29;20495;-60
2022/10/03 17:10:38;;;;;;;3.00;2.70;;;17.00;50.00;;;;;;6039965;29;20459;-60
2022/10/03 17:13:45;;;;;;;4.30;3.20;;;16.90;49.90;;;;;;6040154;29;20436;-59
2022/10/03 17:16:54;;;;;;;29.13;25.00;;;16.80;51.00;;;;;;6035466;29;20471;-60
2022/10/03 17:20:03;;;;;;;20.73;18.50;;;16.80;50.70;;;;;;6016798;29;20486;-60
2022/10/03 17:23:14;;;;;;;18.33;16.57;;;16.70;50.60;;;;;;6016384;29;20555;-59
2022/10/03 17:26:27;;;;;;;24.60;19.73;;;16.60;51.20;;;;;;6023017;29;20970;-60
2022/10/03 17:29:34;;;;;;;43.03;38.23;;;16.60;51.80;;;;;;6039483;29;20500;-59
2022/10/03 17:32:40;;;;;;;7.77;6.90;;;16.50;52.40;;;;;;6039599;29;20479;-60
2022/10/03 17:35:54;;;;;;;40.27;35.43;;;16.50;53.00;;;;;;6039252;29;20476;-60
2022/10/03 17:39:04;;;;;;;37.13;29.53;;;16.40;53.90;;;;;;6038787;29;20487;-60
2022/10/03 17:42:26;;;;;;;18.47;13.90;;;16.30;54.60;;;;;;6037499;29;20479;-60
2022/10/03 17:45:33;;;;;;;19.10;16.87;;;16.30;55.30;;;;;;6036672;29;20483;-60